Time;durP1;ratioP1;P1;durP2;ratioP2;P2;SDS_P1;SDS_P2;PMS_P1;PMS_P2;Temp;Humidity;BMP_temperature;BMP_pressure;BME280_temperature;BME280_humidity;BME280_pressure;Samples;Min_cycle;Max_cycle;Signal;HPM_P1;HPM_P2
2022/12/16 00:00:35;;;;;;;;;;;;;;;-0.02;100.00;96534.84;5071217;28;20011;-58
2022/12/16 00:03:03;;;;;;;;;;;;;;;0.21;100.00;96536.66;5071220;28;19924;-59
2022/12/16 00:05:29;;;;;;;;;;;;;;;0.21;100.00;96528.78;5071022;28;19964;-59
2022/12/16 00:07:56;;;;;;;;;;;;;;;0.33;100.00;96539.25;5070887;28;19924;-60
2022/12/16 00:10:22;;;;;;;;;;;;;;;0.28;100.00;96536.53;5070649;28;19928;-59
2022/12/16 00:12:49;;;;;;;;;;;;;;;0.08;100.00;96531.63;5070894;28;19974;-59
2022/12/16 00:15:15;;;;;;;;;;;;;;;0.02;100.00;96534.38;5070887;28;19987;-59
2022/12/16 00:17:41;;;;;;;;;;;;;;;0.24;100.00;96528.31;5070556;28;19964;-59
2022/12/16 00:20:10;;;;;;;;;;;;;;;0.41;100.00;96525.75;5070135;28;19925;-59
2022/12/16 00:22:36;;;;;;;;;;;;;;;0.52;100.00;96527.56;5067591;28;19964;-59
2022/12/16 00:25:03;;;;;;;;;;;;;;;0.62;100.00;96522.47;5070016;28;19975;-60
2022/12/16 00:27:29;;;;;;;;;;;;;;;0.72;100.00;96516.63;5069878;28;19960;-59
2022/12/16 00:29:55;;;;;;;;;;;;;;;0.53;100.00;96521.25;5069329;28;20007;-60
2022/12/16 00:32:22;;;;;;;;;;;;;;;0.48;100.00;96524.59;5070106;28;20016;-59
2022/12/16 00:34:48;;;;;;;;;;;;;;;0.77;100.00;96514.91;5070194;28;19988;-59
2022/12/16 00:37:15;;;;;;;;;;;;;;;0.67;100.00;96519.97;5070245;28;19996;-59
2022/12/16 00:39:42;;;;;;;;;;;;;;;0.61;100.00;96518.28;5069870;28;19924;-58
2022/12/16 00:42:08;;;;;;;;;;;;;;;0.52;100.00;96523.09;5070142;28;20023;-58
2022/12/16 00:44:34;;;;;;;;;;;;;;;0.57;100.00;96508.44;5069962;28;20015;-59
2022/12/16 00:47:01;;;;;;;;;;;;;;;0.40;100.00;96513.66;5069871;28;19984;-60
2022/12/16 00:49:27;;;;;;;;;;;;;;;0.58;100.00;96516.13;5069979;28;19932;-60
2022/12/16 00:51:53;;;;;;;;;;;;;;;0.56;100.00;96512.13;5070020;28;19960;-59
2022/12/16 00:54:21;;;;;;;;;;;;;;;0.92;100.00;96512.56;5067236;28;20024;-59
2022/12/16 00:56:47;;;;;;;;;;;;;;;0.72;100.00;96512.16;5061992;28;19925;-61
2022/12/16 00:59:14;;;;;;;;;;;;;;;0.70;100.00;96521.31;5069841;28;19924;-59
2022/12/16 01:01:40;;;;;;;;;;;;;;;0.90;100.00;96519.06;5069931;28;19924;-60
2022/12/16 01:04:06;;;;;;;;;;;;;;;0.78;100.00;96521.75;5069950;28;20316;-59
2022/12/16 01:06:32;;;;;;;;;;;;;;;0.67;100.00;96516.53;5069901;28;19929;-60
2022/12/16 01:08:59;;;;;;;;;;;;;;;0.41;100.00;96515.25;5070113;28;19984;-59
2022/12/16 01:11:26;;;;;;;;;;;;;;;0.43;100.00;96524.47;5069690;28;19964;-59
2022/12/16 01:13:53;;;;;;;;;;;;;;;0.40;100.00;96532.03;5069814;28;20008;-59
2022/12/16 01:16:19;;;;;;;;;;;;;;;0.46;100.00;96526.63;5069730;28;19929;-59
2022/12/16 01:18:46;;;;;;;;;;;;;;;0.30;100.00;96523.97;5061455;28;20013;-59
2022/12/16 01:21:13;;;;;;;;;;;;;;;0.10;100.00;96516.44;5069708;28;19925;-59
2022/12/16 01:23:40;;;;;;;;;;;;;;;0.35;100.00;96521.41;5067123;28;19920;-60
2022/12/16 01:26:06;;;;;;;;;;;;;;;0.35;100.00;96526.66;5069502;28;19959;-59
2022/12/16 01:28:34;;;;;;;;;;;;;;;0.60;100.00;96524.56;5069475;28;19968;-59
2022/12/16 01:31:01;;;;;;;;;;;;;;;0.53;100.00;96523.88;5069462;28;19984;-58
2022/12/16 01:33:28;;;;;;;;;;;;;;;0.72;100.00;96521.88;5069584;28;19996;-59
2022/12/16 01:35:58;;;;;;;;;;;;;;;1.12;100.00;96533.13;5051727;28;19925;-59
2022/12/16 01:38:24;;;;;;;;;;;;;;;1.06;100.00;96529.63;5069425;28;19988;-59
2022/12/16 01:40:51;;;;;;;;;;;;;;;1.06;100.00;96531.44;5070639;28;20465;-59
2022/12/16 01:43:18;;;;;;;;;;;;;;;0.74;100.00;96539.03;5073086;28;20572;-58
2022/12/16 01:45:46;;;;;;;;;;;;;;;0.88;100.00;96526.38;5073125;28;20013;-59
2022/12/16 01:48:19;;;;;;;;;;;;;;;0.82;100.00;96536.00;5072878;28;19925;-59
2022/12/16 01:50:46;;;;;;;;;;;;;;;1.00;100.00;96527.94;5064821;28;19988;-60
2022/12/16 01:53:13;;;;;;;;;;;;;;;0.84;100.00;96528.69;5070288;28;19925;-59
2022/12/16 01:55:41;;;;;;;;;;;;;;;0.98;100.00;96526.56;5072997;28;19972;-60
2022/12/16 01:58:11;;;;;;;;;;;;;;;1.02;100.00;96538.22;5072873;28;20004;-60
2022/12/16 02:00:38;;;;;;;;;;;;;;;1.20;100.00;96539.84;5072804;28;19967;-59
2022/12/16 02:03:06;;;;;;;;;;;;;;;1.09;100.00;96538.84;5072671;28;19920;-62
2022/12/16 02:05:34;;;;;;;;;;;;;;;0.87;100.00;96541.34;5072885;28;19980;-60
2022/12/16 02:08:02;;;;;;;;;;;;;;;0.82;100.00;96546.53;5072780;28;19925;-60
2022/12/16 02:10:34;;;;;;;;;;;;;;;0.95;100.00;96546.25;5072766;28;19931;-59
2022/12/16 02:13:03;;;;;;;;;;;;;;;1.08;100.00;96543.31;5072590;28;19925;-59
2022/12/16 02:15:36;;;;;;;;;;;;;;;1.04;100.00;96546.66;5072663;28;19980;-60
2022/12/16 02:18:05;;;;;;;;;;;;;;;0.81;100.00;96542.28;5072407;28;19958;-59
2022/12/16 02:20:50;;;;;;;;;;;;;;;0.60;100.00;96545.56;5072268;28;19925;-60
2022/12/16 02:23:30;;;;;;;;;;;;;;;0.70;100.00;96551.03;5069551;28;19929;-58
2022/12/16 02:32:04;;;;;;;;;;;;;;;1.00;100.00;96559.47;5122673;27;20003;-60
2022/12/16 02:34:32;;;;;;;;;;;;;;;1.03;100.00;96564.25;5115956;28;19928;-59
2022/12/16 02:37:07;;;;;;;;;;;;;;;0.99;100.00;96573.63;5115844;28;19924;-60
2022/12/16 02:39:37;;;;;;;;;;;;;;;1.03;100.00;96566.88;5117502;28;19920;-60
2022/12/16 02:42:08;;;;;;;;;;;;;;;1.17;100.00;96567.41;5119363;28;20073;-60
2022/12/16 02:44:39;;;;;;;;;;;;;;;0.83;100.00;96570.97;5117526;28;19927;-61
2022/12/16 02:47:07;;;;;;;;;;;;;;;0.67;100.00;96571.72;5115907;28;19971;-60
2022/12/16 02:49:43;;;;;;;;;;;;;;;0.62;100.00;96572.38;5117508;28;19984;-58
2022/12/16 02:52:10;;;;;;;;;;;;;;;0.68;100.00;96563.56;5118003;28;20005;-59
2022/12/16 02:54:36;;;;;;;;;;;;;;;0.41;100.00;96565.13;5109049;28;19964;-59
2022/12/16 02:57:06;;;;;;;;;;;;;;;0.31;100.00;96557.06;5118969;28;19953;-60
2022/12/16 02:59:35;;;;;;;;;;;;;;;0.45;100.00;96580.22;5117269;28;19966;-59
2022/12/16 03:02:06;;;;;;;;;;;;;;;0.50;100.00;96577.69;5115381;28;19981;-60
2022/12/16 03:04:38;;;;;;;;;;;;;;;0.72;100.00;96583.09;5116863;28;19960;-59
2022/12/16 03:07:06;;;;;;;;;;;;;;;0.88;100.00;96584.19;5118798;28;20030;-60
2022/12/16 03:09:34;;;;;;;;;;;;;;;1.02;100.00;96594.19;5117029;28;20034;-58
2022/12/16 03:12:03;;;;;;;;;;;;;;;1.01;100.00;96597.06;5115066;28;19999;-59
2022/12/16 03:14:32;;;;;;;;;;;;;;;0.74;100.00;96598.66;5116476;28;19931;-59
2022/12/16 03:16:59;;;;;;;;;;;;;;;0.64;100.00;96604.50;5118856;28;19995;-60
2022/12/16 03:19:27;;;;;;;;;;;;;;;0.84;100.00;96609.34;5118016;28;20080;-59
2022/12/16 03:21:59;;;;;;;;;;;;;;;0.62;100.00;96606.53;5115445;28;19956;-60
2022/12/16 03:24:26;;;;;;;;;;;;;;;0.41;100.00;96599.28;5107311;28;19924;-61
2022/12/16 03:26:56;;;;;;;;;;;;;;;0.37;100.00;96603.41;5118476;28;19983;-60
2022/12/16 03:29:27;;;;;;;;;;;;;;;0.60;100.00;96608.59;5118272;28;19952;-61
2022/12/16 03:31:56;;;;;;;;;;;;;;;0.68;100.00;96615.34;5135121;27;19983;-59
2022/12/16 03:34:31;;;;;;;;;;;;;;;0.83;100.00;96613.81;5135353;28;19967;-58
2022/12/16 03:37:01;;;;;;;;;;;;;;;0.74;100.00;96615.22;5138547;27;19975;-59
2022/12/16 03:39:29;;;;;;;;;;;;;;;0.70;100.00;96606.19;5137384;28;19951;-59
2022/12/16 03:41:56;;;;;;;;;;;;;;;0.81;100.00;96609.81;5129075;28;19923;-60
2022/12/16 03:44:24;;;;;;;;;;;;;;;0.79;100.00;96601.38;5121592;28;19931;-59
2022/12/16 03:46:50;;;;;;;;;;;;;;;0.48;100.00;96600.75;5125001;28;19923;-59
2022/12/16 03:49:17;;;;;;;;;;;;;;;0.55;100.00;96590.13;5124832;28;19935;-59
2022/12/16 03:51:43;;;;;;;;;;;;;;;0.58;100.00;96605.44;5121476;28;19991;-59
2022/12/16 03:54:11;;;;;;;;;;;;;;;0.42;100.00;96609.56;5112360;28;19923;-60
2022/12/16 03:56:37;;;;;;;;;;;;;;;0.42;100.00;96616.63;5123344;28;19924;-59
2022/12/16 03:59:03;;;;;;;;;;;;;;;0.42;100.00;96611.38;5124303;28;19935;-59
2022/12/16 04:01:30;;;;;;;;;;;;;;;0.34;100.00;96614.38;5123028;28;19951;-59
2022/12/16 04:03:56;;;;;;;;;;;;;;;0.71;100.00;96630.66;5120807;28;19995;-60
2022/12/16 04:06:23;;;;;;;;;;;;;;;0.62;100.00;96627.56;5120959;28;19973;-59
2022/12/16 04:08:49;;;;;;;;;;;;;;;0.43;100.00;96624.25;5124262;28;19999;-61
2022/12/16 04:25:06;;;;;;;;;;;;;;;-0.24;100.00;96628.25;5120255;28;19938;-59
2022/12/16 04:27:33;;;;;;;;;;;;;;;-0.36;100.00;96630.06;5122032;28;20077;-59
